createdAt,value
2019-03-21T00:02:06.414Z,-0.57
2019-03-21T00:04:37.215Z,-0.57
2019-03-21T00:07:08.039Z,-0.64
2019-03-21T00:09:39.806Z,-0.66
2019-03-21T00:12:11.365Z,-0.66
2019-03-21T00:14:51.950Z,-0.70
2019-03-21T00:17:28.731Z,-0.81
2019-03-21T00:20:00.775Z,-0.84
2019-03-21T00:22:31.631Z,-0.81
2019-03-21T00:25:02.543Z,-0.83
2019-03-21T00:27:33.301Z,-0.81
2019-03-21T00:30:04.619Z,-0.87
2019-03-21T00:32:35.531Z,-0.94
2019-03-21T00:35:09.337Z,-1.03
2019-03-21T00:37:40.257Z,-1.01
2019-03-21T00:40:13.886Z,-1.01
2019-03-21T00:42:44.701Z,-1.01
2019-03-21T00:45:18.892Z,-1.10
2019-03-21T00:47:49.746Z,-1.14
2019-03-21T00:50:22.838Z,-1.18
2019-03-21T00:52:54.558Z,-1.25
2019-03-21T00:55:26.236Z,-1.18
2019-03-21T00:57:58.612Z,-1.17
2019-03-21T01:00:32.686Z,-1.21
2019-03-21T01:03:03.891Z,-1.17
2019-03-21T01:05:34.783Z,-1.21
2019-03-21T01:08:05.831Z,-1.25
2019-03-21T01:10:36.999Z,-1.29
2019-03-21T01:13:08.008Z,-1.36
2019-03-21T01:15:38.841Z,-1.40
2019-03-21T01:18:09.635Z,-1.40
2019-03-21T01:20:40.761Z,-1.48
2019-03-21T01:23:11.483Z,-1.54
2019-03-21T01:25:48.025Z,-1.57
2019-03-21T01:28:19.705Z,-1.52
2019-03-21T01:30:50.421Z,-1.59
2019-03-21T01:33:21.482Z,-1.60
2019-03-21T01:35:55.026Z,-1.67
2019-03-21T01:38:25.820Z,-1.60
2019-03-21T01:40:58.102Z,-1.67
2019-03-21T01:43:30.167Z,-1.68
2019-03-21T01:46:01.284Z,-1.73
2019-03-21T01:48:35.217Z,-1.67
2019-03-21T01:51:06.191Z,-1.67
2019-03-21T01:53:39.793Z,-1.69
2019-03-21T01:56:12.610Z,-1.76
2019-03-21T01:58:44.034Z,-1.83
2019-03-21T02:01:15.145Z,-1.85
2019-03-21T02:03:46.213Z,-1.82
2019-03-21T02:06:17.069Z,-1.81
2019-03-21T02:08:48.127Z,-1.76
2019-03-21T02:11:19.329Z,-1.77
2019-03-21T02:13:50.183Z,-1.82
2019-03-21T02:16:22.126Z,-1.76
2019-03-21T02:18:54.192Z,-1.77
2019-03-21T02:21:25.048Z,-1.85
2019-03-21T02:23:56.091Z,-1.96
2019-03-21T02:26:27.132Z,-1.99
2019-03-21T02:28:58.948Z,-1.92
2019-03-21T02:31:29.718Z,-1.96
2019-03-21T02:34:00.716Z,-1.89
2019-03-21T02:36:31.544Z,-1.96
2019-03-21T02:39:04.092Z,-2.00
2019-03-21T02:41:36.360Z,-2.01
2019-03-21T02:44:07.076Z,-1.99
2019-03-21T02:46:37.714Z,-2.03
2019-03-21T02:49:13.797Z,-2.02
2019-03-21T02:51:45.763Z,-2.02
2019-03-21T02:54:19.546Z,-2.07
2019-03-21T02:56:53.896Z,-2.09
2019-03-21T02:59:24.992Z,-2.11
2019-03-21T03:01:55.932Z,-2.12
2019-03-21T03:04:26.979Z,-2.15
2019-03-21T03:07:01.348Z,-2.19
2019-03-21T03:09:32.503Z,-2.24
2019-03-21T03:12:03.653Z,-2.23
2019-03-21T03:14:34.911Z,-2.23
2019-03-21T03:17:06.145Z,-2.30
2019-03-21T03:19:37.858Z,-2.30
2019-03-21T03:22:08.967Z,-2.41
2019-03-21T03:24:40.266Z,-2.41
2019-03-21T03:27:11.098Z,-2.48
2019-03-21T03:29:42.092Z,-2.49
2019-03-21T03:32:12.973Z,-2.53
2019-03-21T03:34:46.262Z,-2.54
2019-03-21T03:37:17.222Z,-2.59
2019-03-21T03:39:48.142Z,-2.62
2019-03-21T03:42:19.145Z,-2.57
2019-03-21T03:44:53.151Z,-2.60
2019-03-21T03:47:24.082Z,-2.60
2019-03-21T03:49:56.225Z,-2.64
2019-03-21T03:52:27.061Z,-2.66
2019-03-21T03:54:58.916Z,-2.61
2019-03-21T03:57:32.991Z,-2.61
2019-03-21T04:00:08.184Z,-2.60
2019-03-21T04:02:39.114Z,-2.56
2019-03-21T04:05:11.366Z,-2.66
2019-03-21T04:07:44.345Z,-2.69
2019-03-21T04:10:21.148Z,-2.73
2019-03-21T04:12:52.384Z,-2.72
2019-03-21T04:15:23.421Z,-2.81
2019-03-21T04:17:57.019Z,-2.83
2019-03-21T04:20:29.898Z,-2.86
2019-03-21T04:23:02.276Z,-2.85
2019-03-21T04:25:37.402Z,-2.79
2019-03-21T04:28:08.404Z,-2.79
2019-03-21T04:30:39.487Z,-2.83
2019-03-21T04:33:10.539Z,-2.89
2019-03-21T04:35:41.563Z,-2.89
2019-03-21T04:38:12.705Z,-2.81
2019-03-21T04:40:43.823Z,-2.85
2019-03-21T04:43:16.050Z,-2.87
2019-03-21T04:45:46.825Z,-2.94
2019-03-21T04:48:17.597Z,-2.88
2019-03-21T04:50:48.651Z,-2.97
2019-03-21T04:53:19.673Z,-2.97
2019-03-21T04:55:50.731Z,-3.04
2019-03-21T04:58:21.671Z,-3.06
2019-03-21T05:00:52.752Z,-3.02
2019-03-21T05:03:24.806Z,-3.14
2019-03-21T05:05:55.669Z,-3.26
2019-03-21T05:08:26.838Z,-3.22
2019-03-21T05:10:57.735Z,-3.23
2019-03-21T05:13:30.219Z,-3.19
2019-03-21T05:16:01.202Z,-3.21
2019-03-21T05:18:35.435Z,-3.23
2019-03-21T05:21:07.544Z,-3.27
2019-03-21T05:23:38.531Z,-3.16
2019-03-21T05:26:12.690Z,-3.11
2019-03-21T05:28:43.743Z,-3.18
2019-03-21T05:31:23.000Z,-3.24
2019-03-21T05:33:53.714Z,-3.16
2019-03-21T05:36:24.741Z,-3.05
2019-03-21T05:38:58.561Z,-3.00
2019-03-21T05:41:29.775Z,-3.07
2019-03-21T05:44:04.956Z,-3.05
2019-03-21T05:46:36.102Z,-2.98
2019-03-21T05:49:06.984Z,-2.90
2019-03-21T05:51:38.185Z,-2.92
2019-03-21T05:54:11.145Z,-3.01
2019-03-21T05:56:42.045Z,-2.98
2019-03-21T05:59:14.772Z,-2.86
2019-03-21T06:01:45.786Z,-2.77
2019-03-21T06:04:16.884Z,-2.57
2019-03-21T06:06:52.337Z,-2.41
2019-03-21T06:09:23.251Z,-2.21
2019-03-21T06:11:56.928Z,-2.02
2019-03-21T06:14:28.504Z,-1.76
2019-03-21T06:16:59.591Z,-1.55
2019-03-21T06:19:51.878Z,-1.43
2019-03-21T06:22:46.466Z,-1.31
2019-03-21T06:25:44.784Z,-1.05
2019-03-21T06:28:15.823Z,-0.74
2019-03-21T06:30:49.792Z,-0.47
2019-03-21T06:33:20.647Z,-0.18
2019-03-21T06:35:53.005Z,0.09
2019-03-21T06:38:23.784Z,0.27
2019-03-21T06:40:54.698Z,0.51
2019-03-21T06:43:25.593Z,0.82
2019-03-21T06:45:59.112Z,1.06
2019-03-21T06:48:29.976Z,1.41
2019-03-21T06:51:01.305Z,1.66
2019-03-21T06:53:32.304Z,1.85
2019-03-21T06:56:04.408Z,2.14
2019-03-21T06:58:35.188Z,2.53
2019-03-21T07:01:06.218Z,2.95
2019-03-21T07:03:37.078Z,3.03
2019-03-21T07:06:08.093Z,3.40
2019-03-21T07:08:39.368Z,3.62
2019-03-21T07:11:10.363Z,3.90
2019-03-21T07:13:41.191Z,4.33
2019-03-21T07:16:12.064Z,4.42
2019-03-21T07:18:43.324Z,4.71
2019-03-21T07:21:16.920Z,5.22
2019-03-21T07:23:49.978Z,5.14
2019-03-21T07:26:25.095Z,5.66
2019-03-21T07:28:56.417Z,5.85
2019-03-21T07:31:27.463Z,6.54
2019-03-21T07:33:58.261Z,6.86
2019-03-21T07:36:30.844Z,7.74
2019-03-21T07:39:01.664Z,8.69
2019-03-21T07:41:33.397Z,9.01
2019-03-21T07:44:04.446Z,9.69
2019-03-21T07:46:35.458Z,10.70
2019-03-21T07:49:06.445Z,11.64
2019-03-21T07:51:38.202Z,12.21
2019-03-21T07:54:09.119Z,13.16
2019-03-21T07:56:40.199Z,13.26
2019-03-21T07:59:14.583Z,13.70
2019-03-21T08:01:45.756Z,14.89
2019-03-21T08:04:16.648Z,15.72
2019-03-21T08:06:47.934Z,16.21
2019-03-21T08:09:19.233Z,16.76
2019-03-21T08:11:50.414Z,16.76
2019-03-21T08:14:22.679Z,18.11
2019-03-21T08:16:53.570Z,18.78
2019-03-21T08:19:24.545Z,19.50
2019-03-21T08:21:55.494Z,19.98
2019-03-21T08:24:26.484Z,20.69
2019-03-21T08:26:57.762Z,20.40
2019-03-21T08:29:28.628Z,20.31
2019-03-21T08:31:59.636Z,20.64
2019-03-21T08:34:30.889Z,20.00
2019-03-21T08:37:01.755Z,19.84
2019-03-21T08:39:32.637Z,20.08
2019-03-21T08:42:03.679Z,20.33
2019-03-21T08:44:34.477Z,20.67
2019-03-21T08:47:09.107Z,20.93
2019-03-21T08:49:41.629Z,20.93
2019-03-21T08:52:12.913Z,21.66
2019-03-21T08:54:48.265Z,22.17
2019-03-21T08:57:19.167Z,21.83
2019-03-21T08:59:50.550Z,21.47
2019-03-21T09:02:22.874Z,21.37
2019-03-21T09:04:54.148Z,21.16
2019-03-21T09:07:28.134Z,21.69
2019-03-21T09:10:00.413Z,22.49
2019-03-21T09:12:32.349Z,23.90
2019-03-21T09:15:08.019Z,23.90
2019-03-21T09:17:38.470Z,24.40
2019-03-21T09:20:15.474Z,24.19
2019-03-21T09:22:46.286Z,24.17
2019-03-21T09:25:18.956Z,24.25
2019-03-21T09:28:02.183Z,24.64
2019-03-21T09:30:28.727Z,26.43
2019-03-21T09:32:59.568Z,26.58
2019-03-21T09:35:30.418Z,27.42
2019-03-21T09:38:01.304Z,28.26
2019-03-21T09:40:35.308Z,27.28
2019-03-21T09:43:06.456Z,27.72
2019-03-21T09:45:37.310Z,27.56
2019-03-21T09:48:09.973Z,27.46
2019-03-21T09:50:41.253Z,26.56
2019-03-21T09:53:12.344Z,26.19
2019-03-21T09:55:46.374Z,27.06
2019-03-21T09:58:17.089Z,26.77
2019-03-21T10:00:47.776Z,26.64
2019-03-21T10:03:19.112Z,27.10
2019-03-21T10:05:50.371Z,26.12
2019-03-21T10:08:24.011Z,25.28
2019-03-21T10:10:57.314Z,25.48
2019-03-21T10:13:29.666Z,25.11
2019-03-21T10:16:00.639Z,25.06
2019-03-21T10:18:31.660Z,24.92
2019-03-21T10:21:02.534Z,25.29
2019-03-21T10:23:35.118Z,25.29
2019-03-21T10:26:06.299Z,25.42
2019-03-21T10:28:40.714Z,25.36
2019-03-21T10:31:11.531Z,25.53
2019-03-21T10:33:42.641Z,25.52
2019-03-21T10:36:16.146Z,26.33
2019-03-21T10:38:49.021Z,26.21
2019-03-21T10:41:21.020Z,25.46
2019-03-21T10:43:52.118Z,25.50
2019-03-21T10:46:26.433Z,25.77
2019-03-21T10:48:57.184Z,25.16
2019-03-21T10:51:28.134Z,24.71
2019-03-21T10:54:02.085Z,24.45
2019-03-21T10:56:32.918Z,24.78
2019-03-21T10:59:04.073Z,24.02
2019-03-21T11:01:35.495Z,23.91
2019-03-21T11:04:08.853Z,24.36
2019-03-21T11:06:39.938Z,24.71
2019-03-21T11:09:11.209Z,24.33
2019-03-21T11:11:42.119Z,24.53
2019-03-21T11:14:13.226Z,23.32
2019-03-21T11:16:45.691Z,24.56
2019-03-21T11:19:19.090Z,23.90
2019-03-21T11:21:50.047Z,24.94
2019-03-21T11:24:21.207Z,25.03
2019-03-21T11:26:52.127Z,25.26
2019-03-21T11:29:23.111Z,25.08
2019-03-21T11:31:53.825Z,23.88
2019-03-21T11:34:29.224Z,23.85
2019-03-21T11:37:00.659Z,24.92
2019-03-21T11:39:32.847Z,25.69
2019-03-21T11:42:04.892Z,24.32
2019-03-21T11:44:36.048Z,23.85
2019-03-21T11:47:06.769Z,24.81
2019-03-21T11:49:37.541Z,24.42
2019-03-21T11:52:17.785Z,25.06
2019-03-21T11:54:41.037Z,25.46
2019-03-21T11:57:11.863Z,26.37
2019-03-21T11:59:51.542Z,25.33
2019-03-21T12:02:26.555Z,25.63
2019-03-21T12:04:51.181Z,25.83
2019-03-21T12:07:22.141Z,25.39
2019-03-21T12:09:53.195Z,26.10
2019-03-21T12:12:24.241Z,25.87
2019-03-21T12:14:56.071Z,27.42
2019-03-21T12:17:28.040Z,25.94
2019-03-21T12:19:59.220Z,27.59
2019-03-21T12:22:30.638Z,27.30
2019-03-21T12:25:02.752Z,27.14
2019-03-21T12:27:33.991Z,28.98
2019-03-21T12:30:06.871Z,29.16
2019-03-21T12:32:38.500Z,28.67
2019-03-21T12:35:09.356Z,27.43
2019-03-21T12:37:40.172Z,28.45
2019-03-21T12:40:11.121Z,27.56
2019-03-21T12:42:42.675Z,26.97
2019-03-21T12:45:13.553Z,27.26
2019-03-21T12:47:44.409Z,27.02
2019-03-21T12:50:15.399Z,27.27
2019-03-21T12:52:46.399Z,27.30
2019-03-21T12:55:19.964Z,26.70
2019-03-21T12:57:50.805Z,27.23
2019-03-21T13:00:33.246Z,27.07
2019-03-21T13:03:04.370Z,26.43
2019-03-21T13:05:35.337Z,26.47
2019-03-21T13:08:06.611Z,26.94
2019-03-21T13:10:37.475Z,27.44
2019-03-21T13:13:08.767Z,27.24
2019-03-21T13:15:39.864Z,26.51
2019-03-21T13:18:13.365Z,27.45
2019-03-21T13:20:47.116Z,27.34
2019-03-21T13:23:19.750Z,27.80
2019-03-21T13:25:50.622Z,28.41
2019-03-21T13:28:21.602Z,27.32
2019-03-21T13:30:52.568Z,26.68
2019-03-21T13:33:23.792Z,26.30
2019-03-21T13:35:57.080Z,27.05
2019-03-21T13:38:28.229Z,26.79
2019-03-21T13:40:59.285Z,27.12
2019-03-21T13:43:30.422Z,25.97
2019-03-21T13:46:01.332Z,27.08
2019-03-21T13:48:32.406Z,26.28
2019-03-21T13:51:03.414Z,26.68
2019-03-21T13:53:34.165Z,26.27
2019-03-21T13:56:07.606Z,25.78
2019-03-21T13:58:39.679Z,24.51
2019-03-21T14:01:10.590Z,23.84
2019-03-21T14:03:41.335Z,22.90
2019-03-21T14:06:12.129Z,23.09
2019-03-21T14:08:42.968Z,24.08
2019-03-21T14:11:15.473Z,24.50
2019-03-21T14:13:47.539Z,24.37
2019-03-21T14:16:18.458Z,23.22
2019-03-21T14:18:49.313Z,22.26
2019-03-21T14:21:20.160Z,22.26
2019-03-21T14:23:50.939Z,22.33
2019-03-21T14:26:21.679Z,22.67
2019-03-21T14:28:52.526Z,22.83
2019-03-21T14:31:26.638Z,22.44
2019-03-21T14:33:59.931Z,22.53
2019-03-21T14:36:30.975Z,22.59
2019-03-21T14:39:01.774Z,21.93
2019-03-21T14:41:34.480Z,21.23
2019-03-21T14:44:08.551Z,21.23
2019-03-21T14:46:43.033Z,20.16
2019-03-21T14:49:13.992Z,19.24
2019-03-21T14:51:44.873Z,19.51
2019-03-21T14:54:15.585Z,18.75
2019-03-21T14:56:47.160Z,19.01
2019-03-21T14:59:18.271Z,18.53
2019-03-21T15:01:51.752Z,19.10
2019-03-21T15:04:24.551Z,18.78
2019-03-21T15:06:58.615Z,18.22
2019-03-21T15:09:29.419Z,17.82
2019-03-21T15:12:05.446Z,18.13
2019-03-21T15:14:36.395Z,17.72
2019-03-21T15:17:07.258Z,17.52
2019-03-21T15:19:40.875Z,17.13
2019-03-21T15:22:11.850Z,16.64
2019-03-21T15:24:42.975Z,16.86
2019-03-21T15:27:13.976Z,16.72
2019-03-21T15:29:45.152Z,16.77
2019-03-21T15:32:18.573Z,16.70
2019-03-21T15:34:53.924Z,16.93
2019-03-21T15:37:27.796Z,17.13
2019-03-21T15:39:58.749Z,17.03
2019-03-21T15:42:29.710Z,16.57
2019-03-21T15:45:15.483Z,16.25
2019-03-21T15:47:33.394Z,16.19
2019-03-21T15:50:04.397Z,16.14
2019-03-21T15:52:35.676Z,16.27
2019-03-21T15:55:08.534Z,16.14
2019-03-21T15:57:42.629Z,16.04
2019-03-21T16:00:17.826Z,16.23
2019-03-21T16:02:48.848Z,16.15
2019-03-21T16:05:19.840Z,16.05
2019-03-21T16:07:50.763Z,16.04
2019-03-21T16:10:23.406Z,15.85
2019-03-21T16:12:54.634Z,15.87
2019-03-21T16:15:25.863Z,15.84
2019-03-21T16:17:59.149Z,15.66
2019-03-21T16:20:29.931Z,15.75
2019-03-21T16:23:01.225Z,15.63
2019-03-21T16:25:32.323Z,15.63
2019-03-21T16:28:03.191Z,15.45
2019-03-21T16:30:34.669Z,15.42
2019-03-21T16:33:05.766Z,15.37
2019-03-21T16:35:39.467Z,15.17
2019-03-21T16:38:10.400Z,15.15
2019-03-21T16:40:41.274Z,15.19
2019-03-21T16:43:13.692Z,14.99
2019-03-21T16:45:44.753Z,15.00
2019-03-21T16:48:15.839Z,14.93
2019-03-21T16:50:47.021Z,14.95
2019-03-21T16:53:18.304Z,14.78
2019-03-21T16:55:49.502Z,14.61
2019-03-21T16:58:21.545Z,14.57
2019-03-21T17:00:52.414Z,14.55
2019-03-21T17:03:23.253Z,14.51
2019-03-21T17:05:58.775Z,14.31
2019-03-21T17:08:29.733Z,14.22
2019-03-21T17:11:03.539Z,14.01
2019-03-21T17:13:34.472Z,13.81
2019-03-21T17:16:06.167Z,13.73
2019-03-21T17:18:37.189Z,13.62
2019-03-21T17:21:09.520Z,13.51
2019-03-21T17:23:41.043Z,13.38
2019-03-21T17:26:12.114Z,13.25
2019-03-21T17:28:44.960Z,13.12
2019-03-21T17:31:19.531Z,12.95
2019-03-21T17:33:50.553Z,12.87
2019-03-21T17:36:21.354Z,12.70
2019-03-21T17:38:54.362Z,12.56
2019-03-21T17:41:25.192Z,12.32
2019-03-21T17:43:57.284Z,12.16
2019-03-21T17:46:33.686Z,12.10
2019-03-21T17:49:06.438Z,12.00
2019-03-21T17:51:37.605Z,11.79
2019-03-21T17:54:11.570Z,11.68
2019-03-21T17:56:42.885Z,11.56
2019-03-21T17:59:13.620Z,11.43
2019-03-21T18:01:44.605Z,11.27
2019-03-21T18:04:15.461Z,11.16
2019-03-21T18:06:46.692Z,11.03
2019-03-21T18:09:19.305Z,10.98
2019-03-21T18:11:49.986Z,10.70
2019-03-21T18:14:22.013Z,10.50
2019-03-21T18:16:53.477Z,10.35
2019-03-21T18:19:24.342Z,10.28
2019-03-21T18:22:00.947Z,10.24
2019-03-21T18:24:34.063Z,10.04
2019-03-21T18:27:04.870Z,9.85
2019-03-21T18:29:35.951Z,9.71
2019-03-21T18:32:06.862Z,9.61
2019-03-21T18:34:40.068Z,9.44
2019-03-21T18:37:12.455Z,9.34
2019-03-21T18:39:43.349Z,9.26
2019-03-21T18:42:14.123Z,9.09
2019-03-21T18:44:47.058Z,8.98
2019-03-21T18:47:18.218Z,8.81
2019-03-21T18:49:49.104Z,8.67
2019-03-21T18:52:20.345Z,8.62
2019-03-21T18:54:51.181Z,8.48
2019-03-21T18:57:22.129Z,8.37
2019-03-21T18:59:54.387Z,8.13
2019-03-21T19:02:25.344Z,8.09
2019-03-21T19:04:56.234Z,8.08
2019-03-21T19:07:29.660Z,8.00
2019-03-21T19:10:00.604Z,7.83
2019-03-21T19:12:34.342Z,7.76
2019-03-21T19:15:09.894Z,7.69
2019-03-21T19:17:40.840Z,7.56
2019-03-21T19:20:12.168Z,7.47
2019-03-21T19:22:46.358Z,7.24
2019-03-21T19:25:19.433Z,7.14
2019-03-21T19:27:52.957Z,7.05
2019-03-21T19:30:24.420Z,6.94
2019-03-21T19:32:55.625Z,6.95
2019-03-21T19:35:28.963Z,6.88
2019-03-21T19:38:00.003Z,6.73
2019-03-21T19:40:31.293Z,6.64
2019-03-21T19:43:02.631Z,6.56
2019-03-21T19:45:33.770Z,6.36
2019-03-21T19:48:04.947Z,6.29
2019-03-21T19:50:35.858Z,6.09
2019-03-21T19:53:07.078Z,5.95
2019-03-21T19:55:38.175Z,5.89
2019-03-21T19:58:09.160Z,5.75
2019-03-21T20:00:41.068Z,5.63
2019-03-21T20:03:14.009Z,5.55
2019-03-21T20:05:45.287Z,5.50
2019-03-21T20:08:16.143Z,5.43
2019-03-21T20:10:49.974Z,5.31
2019-03-21T20:13:21.244Z,5.15
2019-03-21T20:15:52.693Z,5.00
2019-03-21T20:18:26.074Z,4.93
2019-03-21T20:20:58.849Z,4.97
2019-03-21T20:23:30.153Z,4.78
2019-03-21T20:26:01.187Z,4.78
2019-03-21T20:28:32.535Z,4.69
2019-03-21T20:31:03.501Z,4.53
2019-03-21T20:33:35.476Z,4.46
2019-03-21T20:36:06.808Z,4.36
2019-03-21T20:38:38.005Z,4.26
2019-03-21T20:41:09.206Z,4.17
2019-03-21T20:43:41.354Z,4.15
2019-03-21T20:46:12.248Z,4.16
2019-03-21T20:48:40.805Z,4.14
2019-03-21T20:51:14.352Z,4.21
2019-03-21T20:53:46.695Z,4.08
2019-03-21T20:56:17.536Z,4.01
2019-03-21T20:58:50.500Z,4.01
2019-03-21T21:01:21.438Z,3.95
2019-03-21T21:03:53.309Z,3.95
2019-03-21T21:06:24.334Z,3.87
2019-03-21T21:08:55.805Z,3.83
2019-03-21T21:11:27.140Z,3.66
2019-03-21T21:13:58.117Z,3.57
2019-03-21T21:16:31.911Z,3.57
2019-03-21T21:19:02.868Z,3.52
2019-03-21T21:21:34.049Z,3.49
2019-03-21T21:24:05.315Z,3.43
2019-03-21T21:26:36.817Z,3.33
2019-03-21T21:29:08.293Z,3.32
2019-03-21T21:31:39.447Z,3.26
2019-03-21T21:34:10.769Z,3.22
2019-03-21T21:36:42.336Z,3.16
2019-03-21T21:39:16.877Z,3.09
2019-03-21T21:41:50.406Z,3.03
2019-03-21T21:44:21.546Z,2.92
2019-03-21T21:46:52.650Z,2.88
2019-03-21T21:49:25.491Z,2.91
2019-03-21T21:51:56.556Z,2.82
2019-03-21T21:54:28.956Z,2.79
2019-03-21T21:57:00.141Z,2.81
2019-03-21T21:59:31.182Z,2.84
2019-03-21T22:02:05.339Z,2.81
2019-03-21T22:04:41.391Z,2.68
2019-03-21T22:07:11.364Z,2.67
2019-03-21T22:09:43.662Z,2.75
2019-03-21T22:12:16.767Z,2.61
2019-03-21T22:14:47.926Z,2.62
2019-03-21T22:17:20.091Z,2.57
2019-03-21T22:19:52.473Z,2.62
2019-03-21T22:22:23.599Z,2.47
2019-03-21T22:24:54.431Z,2.41
2019-03-21T22:27:27.735Z,2.34
2019-03-21T22:29:58.836Z,2.30
2019-03-21T22:32:29.929Z,2.22
2019-03-21T22:35:00.758Z,2.13
2019-03-21T22:37:32.511Z,2.09
2019-03-21T22:40:03.470Z,2.07
2019-03-21T22:42:34.575Z,2.01
2019-03-21T22:45:06.124Z,1.96
2019-03-21T22:47:37.104Z,1.90
2019-03-21T22:50:11.225Z,1.93
2019-03-21T22:52:42.456Z,1.89
2019-03-21T22:55:13.424Z,1.86
2019-03-21T22:57:44.583Z,1.82
2019-03-21T23:00:20.324Z,1.74
2019-03-21T23:02:55.315Z,1.78
2019-03-21T23:05:28.200Z,1.79
2019-03-21T23:07:59.060Z,1.71
2019-03-21T23:10:29.829Z,1.62
2019-03-21T23:13:00.915Z,1.66
2019-03-21T23:15:31.962Z,1.62
2019-03-21T23:18:04.984Z,1.66
2019-03-21T23:20:36.273Z,1.49
2019-03-21T23:23:07.210Z,1.44
2019-03-21T23:25:39.658Z,1.42
2019-03-21T23:28:10.487Z,1.38
2019-03-21T23:30:42.671Z,1.44
2019-03-21T23:33:13.589Z,1.45
2019-03-21T23:35:44.766Z,1.35
2019-03-21T23:38:15.981Z,1.29
2019-03-21T23:40:47.090Z,1.20
2019-03-21T23:43:18.624Z,1.15
2019-03-21T23:45:49.475Z,1.06
2019-03-21T23:48:20.623Z,1.07
2019-03-21T23:50:51.485Z,1.04
2019-03-21T23:53:22.386Z,1.06
2019-03-21T23:55:53.247Z,1.09
2019-03-21T23:58:24.377Z,1.02
